Time;durP1;ratioP1;P1;durP2;ratioP2;P2;SDS_P1;SDS_P2;PMS_P1;PMS_P2;Temp;Humidity;BMP_temperature;BMP_pressure;BME280_temperature;BME280_humidity;BME280_pressure;Samples;Min_cycle;Max_cycle;Signal;HPM_P1;HPM_P2
2022/01/01 00:02:07;;;;;;;;;;;;;;;;;;5073665;28;19967;-82
2022/01/01 00:04:32;;;;;;;;;;;;;;;;;;5073473;28;20329;-81
2022/01/01 00:06:58;;;;;;;;;;;;;;;;;;5073502;28;20391;-82
2022/01/01 00:09:23;;;;;;;;;;;;;;;;;;5073710;28;20015;-82
2022/01/01 00:11:48;;;;;;;;;;;;;;;;;;5073366;28;20046;-81
2022/01/01 00:14:14;;;;;;;;;;;;;;;;;;5073312;28;19917;-85
2022/01/01 00:16:39;;;;;;;;;;;;;;;;;;5073401;28;19917;-83
2022/01/01 00:19:05;;;;;;;;;;;;;;;;;;5073189;28;19924;-84
2022/01/01 00:21:30;;;;;;;;;;;;;;;;;;5075973;28;19916;-94
2022/01/01 00:23:56;;;;;;;;;;;;;;;;;;5076896;28;19921;-84
2022/01/01 00:26:21;;;;;;;;;;;;;;;;;;5076839;28;19916;-84
2022/01/01 00:28:47;;;;;;;;;;;;;;;;;;5077127;28;19962;-83
2022/01/01 00:31:12;;;;;;;;;;;;;;;;;;5076837;28;19916;-83
2022/01/01 00:33:38;;;;;;;;;;;;;;;;;;5076685;28;20007;-84
2022/01/01 00:36:04;;;;;;;;;;;;;;;;;;5076597;28;19917;-91
2022/01/01 00:38:29;;;;;;;;;;;;;;;;;;5076587;28;19923;-93
2022/01/01 00:40:55;;;;;;;;;;;;;;;;;;5076659;28;19923;-94
2022/01/01 00:43:20;;;;;;;;;;;;;;;;;;5076503;28;19942;-93
2022/01/01 00:45:46;;;;;;;;;;;;;;;;;;5076533;28;19928;-84
2022/01/01 00:48:11;;;;;;;;;;;;;;;;;;5076516;28;19983;-83
2022/01/01 00:50:37;;;;;;;;;;;;;;;;;;5076503;28;19917;-83
2022/01/01 00:53:02;;;;;;;;;;;;;;;;;;5076606;28;20451;-83
2022/01/01 00:55:28;;;;;;;;;;;;;;;;;;5076278;28;20429;-86
2022/01/01 00:57:53;;;;;;;;;;;;;;;;;;5075933;28;19920;-83
2022/01/01 01:00:19;;;;;;;;;;;;;;;;;;5076177;28;19917;-91
2022/01/01 01:02:44;;;;;;;;;;;;;;;;;;5058247;28;19939;-83
2022/01/01 01:05:10;;;;;;;;;;;;;;;;;;5076087;28;20336;-83
2022/01/01 01:07:35;;;;;;;;;;;;;;;;;;5076107;28;20008;-86
2022/01/01 01:10:01;;;;;;;;;;;;;;;;;;5076060;28;19966;-88
2022/01/01 01:12:36;;;;;;;;;;;;;;;;;;5076037;28;20384;-84
2022/01/01 01:15:03;;;;;;;;;;;;;;;;;;5076221;28;19918;-84
2022/01/01 01:17:29;;;;;;;;;;;;;;;;;;5075967;28;19923;-83
2022/01/01 01:19:54;;;;;;;;;;;;;;;;;;5076118;28;20360;-83
2022/01/01 01:22:20;;;;;;;;;;;;;;;;;;5075709;28;19931;-93
2022/01/01 01:24:45;;;;;;;;;;;;;;;;;;5076247;28;19917;-94
2022/01/01 01:27:10;;;;;;;;;;;;;;;;;;5075572;28;20356;-83
2022/01/01 01:29:41;;;;;;;;;;;;;;;;;;5075343;28;19920;-88
2022/01/01 01:32:07;;;;;;;;;;;;;;;;;;5075300;28;20306;-86
2022/01/01 01:34:33;;;;;;;;;;;;;;;;;;5075627;28;20007;-83
2022/01/01 01:36:58;;;;;;;;;;;;;;;;;;5075478;28;19916;-83
2022/01/01 01:39:24;;;;;;;;;;;;;;;;;;5075825;28;19924;-85
2022/01/01 01:41:51;;;;;;;;;;;;;;;;;;5075571;28;19970;-83
2022/01/01 01:44:23;;;;;;;;;;;;;;;;;;5075429;28;19920;-86
2022/01/01 01:46:48;;;;;;;;;;;;;;;;;;5075327;28;19952;-89
2022/01/01 01:49:14;;;;;;;;;;;;;;;;;;5075345;28;20294;-83
2022/01/01 01:51:40;;;;;;;;;;;;;;;;;;5075492;28;19970;-84
2022/01/01 01:54:06;;;;;;;;;;;;;;;;;;5075289;28;19917;-89
2022/01/01 01:56:34;;;;;;;;;;;;;;;;;;5075088;28;19916;-84
2022/01/01 01:59:00;;;;;;;;;;;;;;;;;;5074807;28;20377;-83
2022/01/01 02:01:25;;;;;;;;;;;;;;;;;;5075273;28;19925;-86
2022/01/01 02:03:51;;;;;;;;;;;;;;;;;;5074965;28;19963;-83
2022/01/01 02:06:18;;;;;;;;;;;;;;;;;;5074907;28;19921;-83
2022/01/01 02:08:44;;;;;;;;;;;;;;;;;;5074958;28;19912;-84
2022/01/01 02:11:09;;;;;;;;;;;;;;;;;;5074842;28;20292;-83
2022/01/01 02:13:48;;;;;;;;;;;;;;;;;;5056977;28;19930;-84
2022/01/01 02:18:42;;;;;;;;;;;;;;;;;;5074750;28;19923;-83
2022/01/01 02:21:07;;;;;;;;;;;;;;;;;;5074581;28;19912;-90
2022/01/01 02:23:33;;;;;;;;;;;;;;;;;;5056682;28;19923;-83
2022/01/01 02:25:59;;;;;;;;;;;;;;;;;;5074763;28;19920;-86
2022/01/01 02:28:24;;;;;;;;;;;;;;;;;;5074565;28;19917;-83
2022/01/01 02:30:50;;;;;;;;;;;;;;;;;;5074592;28;19918;-83
2022/01/01 02:33:16;;;;;;;;;;;;;;;;;;5074566;28;19920;-86
2022/01/01 02:35:42;;;;;;;;;;;;;;;;;;5074441;28;19916;-83
2022/01/01 02:38:08;;;;;;;;;;;;;;;;;;5074428;28;20421;-93
2022/01/01 02:40:33;;;;;;;;;;;;;;;;;;5074617;28;20323;-84
2022/01/01 02:42:59;;;;;;;;;;;;;;;;;;5073597;28;19916;-83
2022/01/01 02:45:24;;;;;;;;;;;;;;;;;;5074310;28;19939;-84
2022/01/01 02:47:50;;;;;;;;;;;;;;;;;;5074175;28;19917;-84
2022/01/01 02:50:15;;;;;;;;;;;;;;;;;;5074422;28;19916;-84
2022/01/01 02:52:41;;;;;;;;;;;;;;;;;;5074197;28;20325;-83
2022/01/01 02:55:07;;;;;;;;;;;;;;;;;;5073994;28;20411;-84
2022/01/01 02:57:32;;;;;;;;;;;;;;;;;;5074199;28;19928;-83
2022/01/01 02:59:58;;;;;;;;;;;;;;;;;;5074012;28;20326;-84
2022/01/01 03:02:23;;;;;;;;;;;;;;;;;;5077007;28;19920;-83
2022/01/01 03:04:49;;;;;;;;;;;;;;;;;;5079594;28;20018;-84
2022/01/01 03:07:14;;;;;;;;;;;;;;;;;;5082994;28;19994;-92
2022/01/01 03:09:40;;;;;;;;;;;;;;;;;;5085239;28;19920;-84
2022/01/01 03:12:07;;;;;;;;;;;;;;;;;;5078592;28;20007;-83
2022/01/01 03:14:33;;;;;;;;;;;;;;;;;;5084129;28;19925;-84
2022/01/01 03:16:58;;;;;;;;;;;;;;;;;;5079148;28;19974;-83
2022/01/01 03:19:24;;;;;;;;;;;;;;;;;;5080077;28;19920;-84
2022/01/01 03:21:50;;;;;;;;;;;;;;;;;;5075865;28;20364;-83
2022/01/01 03:24:15;;;;;;;;;;;;;;;;;;5082418;28;20280;-84
2022/01/01 03:26:41;;;;;;;;;;;;;;;;;;5079069;28;20015;-93
2022/01/01 03:29:06;;;;;;;;;;;;;;;;;;5080119;28;19924;-85
2022/01/01 03:31:32;;;;;;;;;;;;;;;;;;5086757;28;19920;-84
2022/01/01 03:34:00;;;;;;;;;;;;;;;;;;5085189;28;19966;-83
2022/01/01 03:36:26;;;;;;;;;;;;;;;;;;5080180;28;19935;-83
2022/01/01 03:38:52;;;;;;;;;;;;;;;;;;5080800;28;20023;-83
2022/01/01 03:41:17;;;;;;;;;;;;;;;;;;5081535;28;20003;-83
2022/01/01 03:43:43;;;;;;;;;;;;;;;;;;5071199;28;19924;-83
2022/01/01 03:46:08;;;;;;;;;;;;;;;;;;5086756;28;19920;-84
2022/01/01 03:48:34;;;;;;;;;;;;;;;;;;5087080;28;19916;-83
2022/01/01 03:50:59;;;;;;;;;;;;;;;;;;5081474;28;19917;-83
2022/01/01 03:53:25;;;;;;;;;;;;;;;;;;5093762;28;19918;-84
2022/01/01 03:55:51;;;;;;;;;;;;;;;;;;5068367;28;20017;-85
2022/01/01 03:58:17;;;;;;;;;;;;;;;;;;5095629;28;19924;-84
2022/01/01 04:00:42;;;;;;;;;;;;;;;;;;5086991;28;19970;-85
2022/01/01 04:03:12;;;;;;;;;;;;;;;;;;5097645;28;19916;-88
2022/01/01 04:05:40;;;;;;;;;;;;;;;;;;5093660;28;19999;-83
2022/01/01 04:08:05;;;;;;;;;;;;;;;;;;5077177;28;19970;-88
2022/01/01 04:10:31;;;;;;;;;;;;;;;;;;5077217;28;19920;-86
2022/01/01 04:12:58;;;;;;;;;;;;;;;;;;5082396;28;19928;-84
2022/01/01 04:15:23;;;;;;;;;;;;;;;;;;5088385;28;19920;-83
2022/01/01 04:17:49;;;;;;;;;;;;;;;;;;5079317;28;19967;-83
2022/01/01 04:20:15;;;;;;;;;;;;;;;;;;5080811;28;20391;-89
2022/01/01 04:22:40;;;;;;;;;;;;;;;;;;5084586;28;20379;-88
2022/01/01 04:25:06;;;;;;;;;;;;;;;;;;5067856;28;19932;-91
2022/01/01 04:27:31;;;;;;;;;;;;;;;;;;5082748;28;19928;-92
2022/01/01 04:29:56;;;;;;;;;;;;;;;;;;5084301;28;19925;-83
2022/01/01 04:32:22;;;;;;;;;;;;;;;;;;5092620;28;19920;-83
2022/01/01 04:34:47;;;;;;;;;;;;;;;;;;5089851;28;20402;-90
2022/01/01 04:37:15;;;;;;;;;;;;;;;;;;5092518;28;19920;-93
2022/01/01 04:39:41;;;;;;;;;;;;;;;;;;5096614;28;19923;-93
2022/01/01 04:42:06;;;;;;;;;;;;;;;;;;5083992;28;19923;-83
2022/01/01 04:44:32;;;;;;;;;;;;;;;;;;5081133;28;20013;-94
2022/01/01 04:46:57;;;;;;;;;;;;;;;;;;5076588;28;20007;-92
2022/01/01 04:49:23;;;;;;;;;;;;;;;;;;5081242;28;19916;-83
2022/01/01 04:51:49;;;;;;;;;;;;;;;;;;5094035;28;20394;-85
2022/01/01 04:54:17;;;;;;;;;;;;;;;;;;5088476;28;19916;-83
2022/01/01 04:56:44;;;;;;;;;;;;;;;;;;5076413;28;19963;-83
2022/01/01 04:59:13;;;;;;;;;;;;;;;;;;5076414;28;19970;-85
2022/01/01 05:01:39;;;;;;;;;;;;;;;;;;5089755;28;20053;-83
2022/01/01 05:04:05;;;;;;;;;;;;;;;;;;5096530;28;20014;-83
2022/01/01 05:06:31;;;;;;;;;;;;;;;;;;5068531;28;19921;-87
2022/01/01 05:08:56;;;;;;;;;;;;;;;;;;5081887;28;19931;-84
2022/01/01 05:11:22;;;;;;;;;;;;;;;;;;5086355;28;19920;-83
2022/01/01 05:13:47;;;;;;;;;;;;;;;;;;5084706;28;20367;-90
2022/01/01 05:16:17;;;;;;;;;;;;;;;;;;5076441;28;20272;-84
2022/01/01 05:18:42;;;;;;;;;;;;;;;;;;5065833;28;19921;-94
2022/01/01 05:21:08;;;;;;;;;;;;;;;;;;5079028;28;19927;-84
2022/01/01 05:23:33;;;;;;;;;;;;;;;;;;5079291;28;20003;-91
2022/01/01 05:25:59;;;;;;;;;;;;;;;;;;5064397;28;19922;-85
2022/01/01 05:28:24;;;;;;;;;;;;;;;;;;5081103;28;19920;-94
2022/01/01 05:30:50;;;;;;;;;;;;;;;;;;5083006;28;19920;-84
2022/01/01 05:33:15;;;;;;;;;;;;;;;;;;5083577;28;19924;-84
2022/01/01 05:35:41;;;;;;;;;;;;;;;;;;5067684;28;19942;-95
2022/01/01 05:38:06;;;;;;;;;;;;;;;;;;5090516;28;19924;-90
2022/01/01 05:40:32;;;;;;;;;;;;;;;;;;5085643;28;19924;-83
2022/01/01 05:42:57;;;;;;;;;;;;;;;;;;5085690;28;19921;-88
2022/01/01 05:45:23;;;;;;;;;;;;;;;;;;5089778;28;19927;-94
2022/01/01 05:47:48;;;;;;;;;;;;;;;;;;5093454;28;19961;-86
2022/01/01 05:50:14;;;;;;;;;;;;;;;;;;5095677;28;20292;-93
2022/01/01 05:52:39;;;;;;;;;;;;;;;;;;5095392;28;19916;-83
2022/01/01 05:55:05;;;;;;;;;;;;;;;;;;5095742;28;19963;-84
2022/01/01 05:57:30;;;;;;;;;;;;;;;;;;5095261;28;20022;-83
2022/01/01 05:59:56;;;;;;;;;;;;;;;;;;5077195;28;19931;-85
2022/01/01 06:02:21;;;;;;;;;;;;;;;;;;5077257;28;19916;-90
2022/01/01 06:04:47;;;;;;;;;;;;;;;;;;5077113;28;19927;-83
2022/01/01 06:07:12;;;;;;;;;;;;;;;;;;5095286;28;20368;-86
2022/01/01 06:09:37;;;;;;;;;;;;;;;;;;5095153;28;19981;-83
2022/01/01 06:12:03;;;;;;;;;;;;;;;;;;5095103;28;19923;-84
2022/01/01 06:14:28;;;;;;;;;;;;;;;;;;5095123;28;19931;-83
2022/01/01 06:16:54;;;;;;;;;;;;;;;;;;5095018;28;19923;-83
2022/01/01 06:19:19;;;;;;;;;;;;;;;;;;5095123;28;20024;-84
2022/01/01 06:21:45;;;;;;;;;;;;;;;;;;5095031;28;20452;-94
2022/01/01 06:24:10;;;;;;;;;;;;;;;;;;5094802;28;19924;-83
2022/01/01 06:26:35;;;;;;;;;;;;;;;;;;5094624;28;19959;-83
2022/01/01 06:29:01;;;;;;;;;;;;;;;;;;5094925;28;19920;-83
2022/01/01 06:31:28;;;;;;;;;;;;;;;;;;5094882;28;19927;-83
2022/01/01 06:33:53;;;;;;;;;;;;;;;;;;5094759;28;19916;-83
2022/01/01 06:36:19;;;;;;;;;;;;;;;;;;5094576;28;19916;-87
2022/01/01 06:38:44;;;;;;;;;;;;;;;;;;5094696;28;19923;-85
2022/01/01 06:41:11;;;;;;;;;;;;;;;;;;5094759;28;19916;-89
2022/01/01 06:43:36;;;;;;;;;;;;;;;;;;5094567;28;19916;-87
2022/01/01 06:46:01;;;;;;;;;;;;;;;;;;5094884;28;19941;-88
2022/01/01 06:48:27;;;;;;;;;;;;;;;;;;5094530;28;20002;-84
2022/01/01 06:50:52;;;;;;;;;;;;;;;;;;5094448;28;19923;-83
2022/01/01 06:53:18;;;;;;;;;;;;;;;;;;5093419;28;19913;-85
2022/01/01 06:55:43;;;;;;;;;;;;;;;;;;5086926;28;19923;-87
2022/01/01 06:58:09;;;;;;;;;;;;;;;;;;5088233;28;19920;-92
2022/01/01 07:00:35;;;;;;;;;;;;;;;;;;5085266;28;19924;-83
2022/01/01 07:03:00;;;;;;;;;;;;;;;;;;5089048;28;19974;-84
2022/01/01 07:05:26;;;;;;;;;;;;;;;;;;5090888;28;19931;-83
2022/01/01 07:07:51;;;;;;;;;;;;;;;;;;5075526;28;19934;-82
2022/01/01 07:10:17;;;;;;;;;;;;;;;;;;5094177;28;20015;-84
2022/01/01 07:12:42;;;;;;;;;;;;;;;;;;5094199;28;19916;-83
2022/01/01 07:15:09;;;;;;;;;;;;;;;;;;5093902;28;19922;-82
2022/01/01 07:17:34;;;;;;;;;;;;;;;;;;5094077;28;19942;-82
2022/01/01 07:20:00;;;;;;;;;;;;;;;;;;5093978;28;19916;-83
2022/01/01 07:22:25;;;;;;;;;;;;;;;;;;5094083;28;20015;-84
2022/01/01 07:24:51;;;;;;;;;;;;;;;;;;5093945;28;20368;-82
2022/01/01 07:27:17;;;;;;;;;;;;;;;;;;5093908;28;19920;-87
2022/01/01 07:29:42;;;;;;;;;;;;;;;;;;5093627;28;19931;-92
2022/01/01 07:32:08;;;;;;;;;;;;;;;;;;5093946;28;19920;-84
2022/01/01 07:34:34;;;;;;;;;;;;;;;;;;5093844;28;20065;-83
2022/01/01 07:36:59;;;;;;;;;;;;;;;;;;5093870;28;20006;-83
2022/01/01 07:39:25;;;;;;;;;;;;;;;;;;5093785;28;19922;-85
2022/01/01 07:41:50;;;;;;;;;;;;;;;;;;5093853;28;19951;-82
2022/01/01 07:44:16;;;;;;;;;;;;;;;;;;5093857;28;19962;-84
2022/01/01 07:46:41;;;;;;;;;;;;;;;;;;5075768;28;19916;-82
2022/01/01 07:49:06;;;;;;;;;;;;;;;;;;5093768;28;20368;-82
2022/01/01 07:51:32;;;;;;;;;;;;;;;;;;5093737;28;20376;-82
2022/01/01 07:53:58;;;;;;;;;;;;;;;;;;5093733;28;19916;-93
2022/01/01 07:56:23;;;;;;;;;;;;;;;;;;5093630;28;20374;-85
2022/01/01 07:58:49;;;;;;;;;;;;;;;;;;5089183;28;19924;-84
2022/01/01 08:01:14;;;;;;;;;;;;;;;;;;5080081;28;19921;-83
2022/01/01 08:03:40;;;;;;;;;;;;;;;;;;5080255;28;20292;-85
2022/01/01 08:06:05;;;;;;;;;;;;;;;;;;5070749;28;19920;-85
2022/01/01 08:08:33;;;;;;;;;;;;;;;;;;5088125;28;19935;-87
2022/01/01 08:10:59;;;;;;;;;;;;;;;;;;5085409;28;19916;-82
2022/01/01 08:13:25;;;;;;;;;;;;;;;;;;5080782;28;19920;-83
2022/01/01 08:15:52;;;;;;;;;;;;;;;;;;5084692;28;20294;-85
2022/01/01 08:18:17;;;;;;;;;;;;;;;;;;5083242;28;19949;-84
2022/01/01 08:20:42;;;;;;;;;;;;;;;;;;5086555;28;20007;-82
2022/01/01 08:23:08;;;;;;;;;;;;;;;;;;5095489;28;20267;-89
2022/01/01 08:25:35;;;;;;;;;;;;;;;;;;5093447;28;20359;-83
2022/01/01 08:28:00;;;;;;;;;;;;;;;;;;5086605;28;19920;-84
2022/01/01 08:30:26;;;;;;;;;;;;;;;;;;5091218;28;19926;-84
2022/01/01 08:32:51;;;;;;;;;;;;;;;;;;5093349;28;19969;-84
2022/01/01 08:35:16;;;;;;;;;;;;;;;;;;5091141;28;19925;-90
2022/01/01 08:37:42;;;;;;;;;;;;;;;;;;5090942;28;19966;-84
2022/01/01 08:40:08;;;;;;;;;;;;;;;;;;5087999;28;19979;-85
2022/01/01 08:42:36;;;;;;;;;;;;;;;;;;5093389;28;19920;-86
2022/01/01 08:45:03;;;;;;;;;;;;;;;;;;5090406;28;19970;-86
2022/01/01 08:47:28;;;;;;;;;;;;;;;;;;5092265;28;19960;-84
2022/01/01 08:49:55;;;;;;;;;;;;;;;;;;5094369;28;19966;-88
2022/01/01 08:52:21;;;;;;;;;;;;;;;;;;5093909;28;19973;-84
2022/01/01 08:54:47;;;;;;;;;;;;;;;;;;5094366;28;19924;-92
2022/01/01 08:57:12;;;;;;;;;;;;;;;;;;5094408;28;20318;-86
2022/01/01 08:59:38;;;;;;;;;;;;;;;;;;5091108;28;19927;-85
2022/01/01 09:02:03;;;;;;;;;;;;;;;;;;5093549;28;19920;-84
2022/01/01 09:04:29;;;;;;;;;;;;;;;;;;5095484;28;19920;-84
2022/01/01 09:06:54;;;;;;;;;;;;;;;;;;5096270;28;20028;-92
2022/01/01 09:09:20;;;;;;;;;;;;;;;;;;5095617;28;19920;-86
2022/01/01 09:11:45;;;;;;;;;;;;;;;;;;5095011;28;19951;-84
2022/01/01 09:14:12;;;;;;;;;;;;;;;;;;5090982;28;19927;-85
2022/01/01 09:16:37;;;;;;;;;;;;;;;;;;5093746;28;19954;-84
2022/01/01 09:19:05;;;;;;;;;;;;;;;;;;5096369;28;19923;-86
2022/01/01 09:21:30;;;;;;;;;;;;;;;;;;5088441;28;19960;-85
2022/01/01 09:23:56;;;;;;;;;;;;;;;;;;5086794;28;20409;-87
2022/01/01 09:26:22;;;;;;;;;;;;;;;;;;5078539;28;19994;-84
2022/01/01 09:28:47;;;;;;;;;;;;;;;;;;5096023;28;19958;-93
2022/01/01 09:31:13;;;;;;;;;;;;;;;;;;5096079;28;19959;-84
2022/01/01 09:33:38;;;;;;;;;;;;;;;;;;5096218;28;19926;-91
2022/01/01 09:36:05;;;;;;;;;;;;;;;;;;5096145;28;19916;-85
2022/01/01 09:38:31;;;;;;;;;;;;;;;;;;5095738;28;19923;-86
2022/01/01 09:40:57;;;;;;;;;;;;;;;;;;5095809;28;20034;-87
2022/01/01 09:43:23;;;;;;;;;;;;;;;;;;5095695;28;19919;-85
2022/01/01 09:45:49;;;;;;;;;;;;;;;;;;5095737;28;19916;-85
2022/01/01 09:48:16;;;;;;;;;;;;;;;;;;5095639;28;19978;-86
2022/01/01 09:50:43;;;;;;;;;;;;;;;;;;5095532;28;19916;-93
2022/01/01 09:53:09;;;;;;;;;;;;;;;;;;5095270;28;19923;-84
2022/01/01 09:55:34;;;;;;;;;;;;;;;;;;5092795;28;19920;-85
2022/01/01 09:58:00;;;;;;;;;;;;;;;;;;5091429;28;19924;-84
2022/01/01 10:00:25;;;;;;;;;;;;;;;;;;5090837;28;19923;-87
2022/01/01 10:02:51;;;;;;;;;;;;;;;;;;5094245;28;19920;-84
2022/01/01 10:05:16;;;;;;;;;;;;;;;;;;5091501;28;20310;-84
2022/01/01 10:07:41;;;;;;;;;;;;;;;;;;5089738;28;19924;-84
2022/01/01 10:10:23;;;;;;;;;;;;;;;;;;5092309;28;20332;-84
2022/01/01 10:12:49;;;;;;;;;;;;;;;;;;5092096;28;20406;-86
2022/01/01 10:15:15;;;;;;;;;;;;;;;;;;5091428;28;19920;-87
2022/01/01 10:17:40;;;;;;;;;;;;;;;;;;5094328;28;19921;-85
2022/01/01 10:20:07;;;;;;;;;;;;;;;;;;5091949;28;19920;-85
2022/01/01 10:22:34;;;;;;;;;;;;;;;;;;5092492;28;19973;-85
2022/01/01 10:27:54;;;;;;;;;;;;;;;;;;5092516;28;19993;-86
2022/01/01 10:30:24;;;;;;;;;;;;;;;;;;5089624;28;19924;-85
2022/01/01 10:32:59;;;;;;;;;;;;;;;;;;5089381;28;19924;-88
2022/01/01 10:35:25;;;;;;;;;;;;;;;;;;5092599;28;20272;-85
2022/01/01 10:37:50;;;;;;;;;;;;;;;;;;5089626;28;19934;-86
2022/01/01 10:40:24;;;;;;;;;;;;;;;;;;5090132;28;20312;-85
2022/01/01 10:42:50;;;;;;;;;;;;;;;;;;5091499;28;19920;-90
2022/01/01 10:45:27;;;;;;;;;;;;;;;;;;5077353;28;19923;-86
2022/01/01 10:48:13;;;;;;;;;;;;;;;;;;5090432;28;19920;-88
2022/01/01 10:50:40;;;;;;;;;;;;;;;;;;5092122;28;19961;-93
2022/01/01 10:53:11;;;;;;;;;;;;;;;;;;5096253;28;19924;-85
2022/01/01 10:55:40;;;;;;;;;;;;;;;;;;5093821;28;19966;-83
2022/01/01 10:58:18;;;;;;;;;;;;;;;;;;5093116;28;19920;-84
2022/01/01 11:00:44;;;;;;;;;;;;;;;;;;5096363;28;19973;-85
2022/01/01 11:03:10;;;;;;;;;;;;;;;;;;5082887;28;19916;-85
2022/01/01 11:05:39;;;;;;;;;;;;;;;;;;5093650;28;20367;-86
2022/01/01 11:08:06;;;;;;;;;;;;;;;;;;5079821;28;19985;-85
2022/01/01 11:10:32;;;;;;;;;;;;;;;;;;5095402;28;19923;-86
2022/01/01 11:12:59;;;;;;;;;;;;;;;;;;5076727;28;19920;-91
2022/01/01 11:15:24;;;;;;;;;;;;;;;;;;5076445;28;20007;-85
2022/01/01 11:17:52;;;;;;;;;;;;;;;;;;5095070;28;20015;-83
2022/01/01 11:20:19;;;;;;;;;;;;;;;;;;5093484;28;19916;-86
2022/01/01 11:22:44;;;;;;;;;;;;;;;;;;5094114;28;19963;-86
2022/01/01 11:25:10;;;;;;;;;;;;;;;;;;5093908;28;19927;-87
2022/01/01 11:27:36;;;;;;;;;;;;;;;;;;5093976;28;19916;-89
2022/01/01 11:30:07;;;;;;;;;;;;;;;;;;5093876;28;19962;-92
2022/01/01 11:32:51;;;;;;;;;;;;;;;;;;5094493;28;19916;-85
2022/01/01 11:35:23;;;;;;;;;;;;;;;;;;5088620;28;19925;-85
2022/01/01 11:38:00;;;;;;;;;;;;;;;;;;5088410;28;20375;-88
2022/01/01 11:40:26;;;;;;;;;;;;;;;;;;5101660;28;19920;-83
2022/01/01 11:42:52;;;;;;;;;;;;;;;;;;5094396;28;19916;-86
2022/01/01 11:45:36;;;;;;;;;;;;;;;;;;5093739;28;20390;-86
2022/01/01 11:48:19;;;;;;;;;;;;;;;;;;5094265;28;19918;-88
2022/01/01 11:50:45;;;;;;;;;;;;;;;;;;5094401;28;19939;-84
2022/01/01 11:53:29;;;;;;;;;;;;;;;;;;5093852;28;20382;-88
2022/01/01 11:56:04;;;;;;;;;;;;;;;;;;5096170;28;19920;-82
2022/01/01 11:58:50;;;;;;;;;;;;;;;;;;5093864;28;19927;-82
2022/01/01 12:01:19;;;;;;;;;;;;;;;;;;5091009;28;20348;-83
2022/01/01 12:03:48;;;;;;;;;;;;;;;;;;5083383;28;19923;-82
2022/01/01 12:06:14;;;;;;;;;;;;;;;;;;5082411;28;19920;-87
2022/01/01 12:08:40;;;;;;;;;;;;;;;;;;5088200;28;20022;-88
2022/01/01 12:11:07;;;;;;;;;;;;;;;;;;5097261;28;19920;-88
2022/01/01 12:13:35;;;;;;;;;;;;;;;;;;5093865;28;19923;-83
2022/01/01 12:16:19;;;;;;;;;;;;;;;;;;5095843;28;19916;-84
2022/01/01 12:18:44;;;;;;;;;;;;;;;;;;5097911;28;19916;-84
2022/01/01 12:21:18;;;;;;;;;;;;;;;;;;5099517;28;20421;-81
2022/01/01 12:23:46;;;;;;;;;;;;;;;;;;5099139;28;19917;-87
2022/01/01 12:26:14;;;;;;;;;;;;;;;;;;5077440;28;20283;-83
2022/01/01 12:28:40;;;;;;;;;;;;;;;;;;5085740;28;19916;-84
2022/01/01 12:31:06;;;;;;;;;;;;;;;;;;5099070;28;20287;-88
2022/01/01 12:33:38;;;;;;;;;;;;;;;;;;5098608;28;19916;-88
2022/01/01 12:36:05;;;;;;;;;;;;;;;;;;5096923;28;20315;-84
2022/01/01 12:38:30;;;;;;;;;;;;;;;;;;5096845;28;20348;-83
2022/01/01 12:41:08;;;;;;;;;;;;;;;;;;5105625;28;19920;-81
2022/01/01 12:43:40;;;;;;;;;;;;;;;;;;5084828;28;20372;-84
2022/01/01 12:46:06;;;;;;;;;;;;;;;;;;5058772;28;19916;-85
2022/01/01 12:48:36;;;;;;;;;;;;;;;;;;5076597;28;19931;-83
2022/01/01 12:51:01;;;;;;;;;;;;;;;;;;5095772;28;20375;-87
2022/01/01 12:53:27;;;;;;;;;;;;;;;;;;5096838;28;19942;-90
2022/01/01 12:55:58;;;;;;;;;;;;;;;;;;5096190;28;19960;-85
2022/01/01 12:58:24;;;;;;;;;;;;;;;;;;5096443;28;19920;-83
2022/01/01 13:00:49;;;;;;;;;;;;;;;;;;5096505;28;19923;-84
2022/01/01 13:03:14;;;;;;;;;;;;;;;;;;5096496;28;19916;-83
2022/01/01 13:05:40;;;;;;;;;;;;;;;;;;5096433;28;19916;-84
2022/01/01 13:08:05;;;;;;;;;;;;;;;;;;5095113;28;20351;-91
2022/01/01 13:10:33;;;;;;;;;;;;;;;;;;5096304;28;19939;-83
2022/01/01 13:12:59;;;;;;;;;;;;;;;;;;5096397;28;19916;-85
2022/01/01 13:15:25;;;;;;;;;;;;;;;;;;5096406;28;19916;-83
2022/01/01 13:17:50;;;;;;;;;;;;;;;;;;5096426;28;20358;-91
2022/01/01 13:20:16;;;;;;;;;;;;;;;;;;5096302;28;19927;-83
2022/01/01 13:22:41;;;;;;;;;;;;;;;;;;5096637;28;20427;-83
2022/01/01 13:25:10;;;;;;;;;;;;;;;;;;5094907;28;20386;-83
2022/01/01 13:27:36;;;;;;;;;;;;;;;;;;5095504;28;19922;-88
2022/01/01 13:30:01;;;;;;;;;;;;;;;;;;5096133;28;19916;-82
2022/01/01 13:32:27;;;;;;;;;;;;;;;;;;5095857;28;19927;-83
2022/01/01 13:34:53;;;;;;;;;;;;;;;;;;5096288;28;19916;-83
2022/01/01 13:37:23;;;;;;;;;;;;;;;;;;5095928;28;19919;-85
2022/01/01 13:39:48;;;;;;;;;;;;;;;;;;5096684;28;20275;-88
2022/01/01 13:42:18;;;;;;;;;;;;;;;;;;5095908;28;19912;-83
2022/01/01 13:44:43;;;;;;;;;;;;;;;;;;5095929;28;19922;-84
2022/01/01 13:47:12;;;;;;;;;;;;;;;;;;5096320;28;20286;-84
2022/01/01 13:49:41;;;;;;;;;;;;;;;;;;5095845;28;19946;-83
2022/01/01 13:52:07;;;;;;;;;;;;;;;;;;5095914;28;19941;-84
2022/01/01 13:54:38;;;;;;;;;;;;;;;;;;5095523;28;19919;-85
2022/01/01 13:57:06;;;;;;;;;;;;;;;;;;5095487;28;19966;-84
2022/01/01 13:59:32;;;;;;;;;;;;;;;;;;5095273;28;19920;-83
2022/01/01 14:01:57;;;;;;;;;;;;;;;;;;5095428;28;19963;-87
2022/01/01 14:04:27;;;;;;;;;;;;;;;;;;5095441;28;19916;-92
2022/01/01 14:07:06;;;;;;;;;;;;;;;;;;5095373;28;20375;-83
2022/01/01 14:09:31;;;;;;;;;;;;;;;;;;5095772;28;19917;-92
2022/01/01 14:11:57;;;;;;;;;;;;;;;;;;5095263;28;20268;-87
2022/01/01 14:14:27;;;;;;;;;;;;;;;;;;5095504;28;20307;-84
2022/01/01 14:16:52;;;;;;;;;;;;;;;;;;5095188;28;20021;-83
2022/01/01 14:19:19;;;;;;;;;;;;;;;;;;5095129;28;19916;-84
2022/01/01 14:21:45;;;;;;;;;;;;;;;;;;5093721;28;19912;-83
2022/01/01 14:24:15;;;;;;;;;;;;;;;;;;5093673;28;20004;-84
2022/01/01 14:26:44;;;;;;;;;;;;;;;;;;5094990;28;19951;-86
2022/01/01 14:29:10;;;;;;;;;;;;;;;;;;5094852;28;19912;-83
2022/01/01 14:31:36;;;;;;;;;;;;;;;;;;5094933;28;19916;-86
2022/01/01 14:34:02;;;;;;;;;;;;;;;;;;5094821;28;19912;-83
2022/01/01 14:36:27;;;;;;;;;;;;;;;;;;5094648;28;19920;-89
2022/01/01 14:38:53;;;;;;;;;;;;;;;;;;5093739;28;19927;-83
2022/01/01 14:41:19;;;;;;;;;;;;;;;;;;5094737;28;19961;-89
2022/01/01 14:43:45;;;;;;;;;;;;;;;;;;5093383;28;19920;-84
2022/01/01 14:46:15;;;;;;;;;;;;;;;;;;5094982;28;19916;-83
2022/01/01 14:49:08;;;;;;;;;;;;;;;;;;5095424;28;20333;-84
2022/01/01 14:51:55;;;;;;;;;;;;;;;;;;5065347;28;19916;-84
2022/01/01 14:54:32;;;;;;;;;;;;;;;;;;5095371;28;20386;-87
2022/01/01 14:57:01;;;;;;;;;;;;;;;;;;5095653;28;19959;-85
2022/01/01 14:59:36;;;;;;;;;;;;;;;;;;5094846;28;19926;-84
2022/01/01 15:02:03;;;;;;;;;;;;;;;;;;5094397;28;20373;-87
2022/01/01 15:04:28;;;;;;;;;;;;;;;;;;5095342;28;19955;-86
2022/01/01 15:06:54;;;;;;;;;;;;;;;;;;5094903;28;20311;-87
2022/01/01 15:09:21;;;;;;;;;;;;;;;;;;5094719;28;19916;-84
2022/01/01 15:11:47;;;;;;;;;;;;;;;;;;5094469;28;19999;-84
2022/01/01 15:14:13;;;;;;;;;;;;;;;;;;5094441;28;20386;-85
2022/01/01 15:16:38;;;;;;;;;;;;;;;;;;5094189;28;19920;-84
2022/01/01 15:19:04;;;;;;;;;;;;;;;;;;5094113;28;19916;-85
2022/01/01 15:21:48;;;;;;;;;;;;;;;;;;5094083;28;20061;-86
2022/01/01 15:24:18;;;;;;;;;;;;;;;;;;5093983;28;19974;-85
2022/01/01 15:26:48;;;;;;;;;;;;;;;;;;5094037;28;19916;-85
2022/01/01 15:29:41;;;;;;;;;;;;;;;;;;5095318;28;20014;-90
2022/01/01 15:34:59;;;;;;;;;;;;;;;;;;5095368;28;19923;-85
2022/01/01 15:37:26;;;;;;;;;;;;;;;;;;5094672;28;19916;-84
2022/01/01 15:40:00;;;;;;;;;;;;;;;;;;5095247;28;19939;-94
2022/01/01 15:42:26;;;;;;;;;;;;;;;;;;5095183;28;19912;-92
2022/01/01 15:44:52;;;;;;;;;;;;;;;;;;5094914;28;19920;-87
2022/01/01 15:47:18;;;;;;;;;;;;;;;;;;5093986;28;19959;-88
2022/01/01 15:49:45;;;;;;;;;;;;;;;;;;5094564;28;20413;-85
2022/01/01 15:52:10;;;;;;;;;;;;;;;;;;5098906;28;19963;-85
2022/01/01 15:54:36;;;;;;;;;;;;;;;;;;5098883;28;19960;-83
2022/01/01 15:57:04;;;;;;;;;;;;;;;;;;5099068;28;19923;-93
2022/01/01 15:59:32;;;;;;;;;;;;;;;;;;5098858;28;20298;-84
2022/01/01 16:02:18;;;;;;;;;;;;;;;;;;5098699;28;19916;-87
2022/01/01 16:04:59;;;;;;;;;;;;;;;;;;5106660;28;20006;-85
2022/01/01 16:07:27;;;;;;;;;;;;;;;;;;5117245;28;19922;-86
2022/01/01 16:09:59;;;;;;;;;;;;;;;;;;5118360;28;19961;-87
2022/01/01 16:12:26;;;;;;;;;;;;;;;;;;5118755;28;19998;-85
2022/01/01 16:14:57;;;;;;;;;;;;;;;;;;5118490;28;20001;-85
2022/01/01 16:17:23;;;;;;;;;;;;;;;;;;5118268;28;19967;-93
2022/01/01 16:19:52;;;;;;;;;;;;;;;;;;5118765;28;19922;-83
2022/01/01 16:22:18;;;;;;;;;;;;;;;;;;5118708;28;19966;-85
2022/01/01 16:24:45;;;;;;;;;;;;;;;;;;5118718;28;20289;-85
2022/01/01 16:27:10;;;;;;;;;;;;;;;;;;5100325;28;20044;-85
2022/01/01 16:29:36;;;;;;;;;;;;;;;;;;5118270;28;20387;-88
2022/01/01 16:32:02;;;;;;;;;;;;;;;;;;5117913;28;19916;-86
2022/01/01 16:34:29;;;;;;;;;;;;;;;;;;5118278;28;19920;-88
2022/01/01 16:36:55;;;;;;;;;;;;;;;;;;5118000;28;19916;-86
2022/01/01 16:39:21;;;;;;;;;;;;;;;;;;5118277;28;19930;-88
2022/01/01 16:41:59;;;;;;;;;;;;;;;;;;5118006;28;19923;-86
2022/01/01 16:44:29;;;;;;;;;;;;;;;;;;5117360;28;19916;-86
2022/01/01 16:47:15;;;;;;;;;;;;;;;;;;5117294;28;19916;-86
2022/01/01 16:49:43;;;;;;;;;;;;;;;;;;5117228;28;19923;-86
2022/01/01 16:52:29;;;;;;;;;;;;;;;;;;5117337;28;20014;-85
2022/01/01 16:54:59;;;;;;;;;;;;;;;;;;5117091;28;20278;-86